createdAt,value
2022-12-16T00:00:50.941Z,2.60
2022-12-16T00:01:53.954Z,2.60
2022-12-16T00:03:00.464Z,2.50
2022-12-16T00:04:03.477Z,2.50
2022-12-16T00:05:06.294Z,2.50
2022-12-16T00:06:10.505Z,2.50
2022-12-16T00:07:12.420Z,2.50
2022-12-16T00:08:15.357Z,2.50
2022-12-16T00:09:17.692Z,2.50
2022-12-16T00:10:21.969Z,2.70
2022-12-16T00:11:25.085Z,2.70
2022-12-16T00:12:27.159Z,2.70
2022-12-16T00:13:32.460Z,2.70
2022-12-16T00:14:34.705Z,2.70
2022-12-16T00:15:38.854Z,2.60
2022-12-16T00:16:41.953Z,2.70
2022-12-16T00:17:43.946Z,2.70
2022-12-16T00:18:48.174Z,2.70
2022-12-16T00:19:50.156Z,2.70
2022-12-16T00:20:55.255Z,2.60
2022-12-16T00:21:57.266Z,2.60
2022-12-16T00:23:00.190Z,2.70
2022-12-16T00:24:02.127Z,2.70
2022-12-16T00:25:05.597Z,2.60
2022-12-16T00:26:09.648Z,2.60
2022-12-16T00:27:12.728Z,2.60
2022-12-16T00:28:16.410Z,2.60
2022-12-16T00:29:20.139Z,2.60
2022-12-16T00:30:22.088Z,2.50
2022-12-16T00:31:25.436Z,2.60
2022-12-16T00:32:27.436Z,2.60
2022-12-16T00:33:30.835Z,2.70
2022-12-16T00:34:33.312Z,2.60
2022-12-16T00:35:36.340Z,2.60
2022-12-16T00:36:39.228Z,2.50
2022-12-16T00:37:41.173Z,2.50
2022-12-16T00:38:44.137Z,2.60
2022-12-16T00:39:46.095Z,2.70
2022-12-16T00:40:49.084Z,2.70
2022-12-16T00:41:53.369Z,2.70
2022-12-16T00:42:56.857Z,2.70
2022-12-16T00:43:59.837Z,2.70
2022-12-16T00:45:01.847Z,2.70
2022-12-16T00:46:05.138Z,2.70
2022-12-16T00:47:07.130Z,2.60
2022-12-16T00:48:10.168Z,2.60
2022-12-16T00:49:12.106Z,2.70
2022-12-16T00:50:15.068Z,2.80
2022-12-16T00:51:16.977Z,2.90
2022-12-16T00:52:19.888Z,2.90
2022-12-16T00:53:23.062Z,2.90
2022-12-16T00:54:26.029Z,2.80
2022-12-16T00:55:28.016Z,2.80
2022-12-16T00:56:30.942Z,2.80
2022-12-16T00:57:34.312Z,2.80
2022-12-16T00:58:37.908Z,2.70
2022-12-16T00:59:40.804Z,2.80
2022-12-16T01:00:42.920Z,2.70
2022-12-16T01:01:46.051Z,2.70
2022-12-16T01:02:49.364Z,2.70
2022-12-16T01:03:52.392Z,2.80
2022-12-16T01:04:54.382Z,2.80
2022-12-16T01:05:57.730Z,2.90
2022-12-16T01:06:59.701Z,2.80
2022-12-16T01:08:02.742Z,2.80
2022-12-16T01:09:04.848Z,2.80
2022-12-16T01:10:09.461Z,2.80
2022-12-16T01:11:11.421Z,2.70
2022-12-16T01:12:14.327Z,2.70
2022-12-16T01:13:17.919Z,2.70
2022-12-16T01:14:20.904Z,2.70
2022-12-16T01:15:22.871Z,2.70
2022-12-16T01:16:26.078Z,2.70
2022-12-16T01:17:28.196Z,2.70
2022-12-16T01:18:31.512Z,2.70
2022-12-16T01:19:33.500Z,2.70
2022-12-16T01:20:36.428Z,2.70
2022-12-16T01:21:38.825Z,2.70
2022-12-16T01:22:42.556Z,2.70
2022-12-16T01:23:44.549Z,2.70
2022-12-16T01:24:47.595Z,2.70
2022-12-16T01:25:52.920Z,2.70
2022-12-16T01:26:56.069Z,2.80
2022-12-16T01:27:57.992Z,2.80
2022-12-16T01:29:02.300Z,2.80
2022-12-16T01:30:05.079Z,2.90
2022-12-16T01:31:08.206Z,2.90
2022-12-16T01:32:14.121Z,2.90
2022-12-16T01:33:18.096Z,2.90
2022-12-16T01:34:20.096Z,2.80
2022-12-16T01:35:52.240Z,2.80
2022-12-16T01:36:45.998Z,2.80
2022-12-16T01:37:48.076Z,2.70
2022-12-16T01:38:51.392Z,2.80
2022-12-16T01:39:53.999Z,2.80
2022-12-16T01:40:57.280Z,2.70
2022-12-16T01:41:59.234Z,2.70
2022-12-16T01:43:02.155Z,2.70
2022-12-16T01:44:20.315Z,2.70
2022-12-16T01:45:32.976Z,2.80
2022-12-16T01:46:38.571Z,2.80
2022-12-16T01:47:40.594Z,2.80
2022-12-16T01:48:47.991Z,2.90
2022-12-16T01:49:53.478Z,2.90
2022-12-16T01:51:03.758Z,2.80
2022-12-16T01:52:09.549Z,2.70
2022-12-16T01:53:12.546Z,2.70
2022-12-16T01:54:19.542Z,2.80
2022-12-16T01:55:24.708Z,2.80
2022-12-16T01:56:31.068Z,2.90
2022-12-16T01:57:37.905Z,3.00
2022-12-16T01:58:42.834Z,2.90
2022-12-16T01:59:48.937Z,2.70
2022-12-16T02:00:52.064Z,2.80
2022-12-16T02:01:57.368Z,2.70
2022-12-16T02:03:01.455Z,2.80
2022-12-16T02:04:05.382Z,2.80
2022-12-16T02:05:22.922Z,2.80
2022-12-16T02:06:25.980Z,2.80
2022-12-16T02:07:28.001Z,2.80
2022-12-16T02:08:31.067Z,2.80
2022-12-16T02:09:33.061Z,2.70
2022-12-16T02:10:48.438Z,2.70
2022-12-16T02:12:14.428Z,2.80
2022-12-16T02:13:26.391Z,2.80
2022-12-16T02:15:02.412Z,2.80
2022-12-16T02:16:13.927Z,2.70
2022-12-16T02:17:25.610Z,2.80
2022-12-16T02:18:38.291Z,2.80
2022-12-16T02:20:29.010Z,2.80
2022-12-16T02:21:51.970Z,2.80
2022-12-16T02:23:16.834Z,2.80
2022-12-16T02:25:03.172Z,2.80
2022-12-16T02:26:38.676Z,2.70
2022-12-16T02:27:52.524Z,2.80
2022-12-16T02:29:20.825Z,2.80
2022-12-16T02:30:47.471Z,2.90
2022-12-16T02:31:55.980Z,2.80
2022-12-16T02:33:10.205Z,2.70
2022-12-16T02:34:22.173Z,2.80
2022-12-16T02:35:31.354Z,2.90
2022-12-16T02:36:51.993Z,2.80
2022-12-16T02:38:12.801Z,2.80
2022-12-16T02:40:56.058Z,2.70
2022-12-16T02:42:03.536Z,2.70
2022-12-16T02:43:12.330Z,2.70
2022-12-16T02:44:16.401Z,2.60
2022-12-16T02:45:21.705Z,2.70
2022-12-16T02:46:28.692Z,2.80
2022-12-16T02:47:32.965Z,2.80
2022-12-16T02:48:34.932Z,2.80
2022-12-16T02:49:48.233Z,2.80
2022-12-16T02:50:51.632Z,2.80
2022-12-16T02:51:55.800Z,2.80
2022-12-16T02:52:58.876Z,2.90
2022-12-16T02:54:01.960Z,2.80
2022-12-16T02:55:08.997Z,2.90
2022-12-16T02:56:25.060Z,2.80
2022-12-16T02:57:49.544Z,2.90
2022-12-16T02:58:58.191Z,2.90
2022-12-16T03:00:04.910Z,2.90
2022-12-16T03:01:13.604Z,2.90
2022-12-16T03:02:25.691Z,2.80
2022-12-16T03:03:35.739Z,2.80
2022-12-16T03:04:44.288Z,2.70
2022-12-16T03:05:48.678Z,2.70
2022-12-16T03:06:54.154Z,2.80
2022-12-16T03:08:00.418Z,2.70
2022-12-16T03:09:07.608Z,2.70
2022-12-16T03:10:14.494Z,2.80
2022-12-16T03:11:17.444Z,2.80
2022-12-16T03:12:21.911Z,2.80
2022-12-16T03:13:26.219Z,2.80
2022-12-16T03:14:31.735Z,2.80
2022-12-16T03:15:36.011Z,2.70
2022-12-16T03:16:38.229Z,2.60
2022-12-16T03:17:43.781Z,2.70
2022-12-16T03:18:51.365Z,2.70
2022-12-16T03:20:10.450Z,2.70
2022-12-16T03:21:15.230Z,2.70
2022-12-16T03:22:21.991Z,2.60
2022-12-16T03:23:29.637Z,2.60
2022-12-16T03:24:32.542Z,2.70
2022-12-16T03:25:38.144Z,2.60
2022-12-16T03:26:49.056Z,2.60
2022-12-16T03:27:57.573Z,2.70
2022-12-16T03:29:04.655Z,2.70
2022-12-16T03:30:13.312Z,2.70
2022-12-16T03:31:25.691Z,2.60
2022-12-16T03:32:34.197Z,2.60
2022-12-16T03:33:41.911Z,2.70
2022-12-16T03:34:48.940Z,2.60
2022-12-16T03:35:56.573Z,2.60
2022-12-16T03:37:02.283Z,2.50
2022-12-16T03:38:07.640Z,2.60
2022-12-16T03:39:10.440Z,2.70
2022-12-16T03:40:14.713Z,2.60
2022-12-16T03:41:18.692Z,2.70
2022-12-16T03:42:21.656Z,2.60
2022-12-16T03:43:24.232Z,2.70
2022-12-16T03:44:27.801Z,2.70
2022-12-16T03:45:35.732Z,2.70
2022-12-16T03:46:38.807Z,2.70
2022-12-16T03:47:41.000Z,2.70
2022-12-16T03:48:50.261Z,2.70
2022-12-16T03:49:52.319Z,2.70
2022-12-16T03:50:55.578Z,2.60
2022-12-16T03:51:57.537Z,2.70
2022-12-16T03:53:00.591Z,2.70
2022-12-16T03:54:02.557Z,2.70
2022-12-16T03:55:05.968Z,2.70
2022-12-16T03:56:08.478Z,2.60
2022-12-16T03:57:15.344Z,2.60
2022-12-16T03:58:17.855Z,2.60
2022-12-16T03:59:21.037Z,2.70
2022-12-16T04:00:23.776Z,2.70
2022-12-16T04:01:26.977Z,2.60
2022-12-16T04:02:29.129Z,2.70
2022-12-16T04:03:32.599Z,2.60
2022-12-16T04:04:36.116Z,2.70
2022-12-16T04:05:39.193Z,2.70
2022-12-16T04:06:41.140Z,2.60
2022-12-16T04:07:44.096Z,2.60
2022-12-16T04:08:48.309Z,2.60
2022-12-16T04:09:51.414Z,2.60
2022-12-16T04:11:12.541Z,2.60
2022-12-16T04:12:32.982Z,2.60
2022-12-16T04:13:53.468Z,2.70
2022-12-16T04:15:13.975Z,2.60
2022-12-16T04:16:35.992Z,2.60
2022-12-16T04:17:56.545Z,2.50
2022-12-16T04:19:17.203Z,2.50
2022-12-16T04:20:42.111Z,2.50
2022-12-16T04:22:02.600Z,2.60
2022-12-16T04:23:23.845Z,2.40
2022-12-16T04:24:30.804Z,2.50
2022-12-16T04:25:36.335Z,2.40
2022-12-16T04:26:53.136Z,2.40
2022-12-16T04:27:58.637Z,2.40
2022-12-16T04:29:00.607Z,2.40
2022-12-16T04:30:21.934Z,2.40
2022-12-16T04:31:24.075Z,2.40
2022-12-16T04:32:27.296Z,2.30
2022-12-16T04:33:48.164Z,2.30
2022-12-16T04:34:51.632Z,2.30
2022-12-16T04:36:13.168Z,2.40
2022-12-16T04:37:33.777Z,2.20
2022-12-16T04:38:54.240Z,2.20
2022-12-16T04:40:14.888Z,2.10
2022-12-16T04:41:35.331Z,2.20
2022-12-16T04:42:55.801Z,2.10
2022-12-16T04:44:16.299Z,2.10
2022-12-16T04:45:37.328Z,2.20
2022-12-16T04:46:57.825Z,2.30
2022-12-16T04:48:18.306Z,2.30
2022-12-16T04:49:38.860Z,2.20
2022-12-16T04:50:59.381Z,2.20
2022-12-16T04:52:21.184Z,2.20
2022-12-16T04:53:41.748Z,2.30
2022-12-16T04:55:02.155Z,2.30
2022-12-16T04:56:23.109Z,2.40
2022-12-16T04:57:43.663Z,2.40
2022-12-16T04:59:04.128Z,2.40
2022-12-16T05:00:25.824Z,2.40
2022-12-16T05:01:46.649Z,2.30
2022-12-16T05:03:07.617Z,2.30
2022-12-16T05:04:27.892Z,2.40
2022-12-16T05:05:59.676Z,2.50
2022-12-16T05:07:21.396Z,2.40
2022-12-16T05:08:41.792Z,2.40
2022-12-16T05:10:02.394Z,2.30
2022-12-16T05:11:23.390Z,2.40
2022-12-16T05:12:43.833Z,2.30
2022-12-16T05:14:04.420Z,2.30
2022-12-16T05:15:25.661Z,2.30
2022-12-16T05:16:46.144Z,2.30
2022-12-16T05:18:06.637Z,2.30
2022-12-16T05:19:31.648Z,2.30
2022-12-16T05:20:52.435Z,2.30
2022-12-16T05:22:09.220Z,2.20
2022-12-16T05:23:31.158Z,2.20
2022-12-16T05:24:57.193Z,2.40
2022-12-16T05:26:17.652Z,2.40
2022-12-16T05:27:38.156Z,2.30
2022-12-16T05:28:58.624Z,2.30
2022-12-16T05:30:18.983Z,2.30
2022-12-16T05:31:39.547Z,2.40
2022-12-16T05:32:59.877Z,2.40
2022-12-16T05:34:20.580Z,2.50
2022-12-16T05:35:41.208Z,2.40
2022-12-16T05:37:01.893Z,2.30
2022-12-16T05:38:18.746Z,2.20
2022-12-16T05:39:40.483Z,2.30
2022-12-16T05:41:01.096Z,2.30
2022-12-16T05:42:21.728Z,2.40
2022-12-16T05:43:42.316Z,2.50
2022-12-16T05:45:02.767Z,2.30
2022-12-16T05:46:23.436Z,2.20
2022-12-16T05:47:44.655Z,2.40
2022-12-16T05:49:05.074Z,2.30
2022-12-16T05:50:26.144Z,2.30
2022-12-16T05:51:46.653Z,2.40
2022-12-16T05:53:08.623Z,2.40
2022-12-16T05:54:29.105Z,2.40
2022-12-16T05:55:50.841Z,2.30
2022-12-16T05:57:11.387Z,2.30
2022-12-16T05:58:31.864Z,2.30
2022-12-16T05:59:52.519Z,2.30
2022-12-16T06:01:13.504Z,2.40
2022-12-16T06:02:34.222Z,2.30
2022-12-16T06:03:55.384Z,2.40
2022-12-16T06:05:15.743Z,2.30
2022-12-16T06:06:36.356Z,2.40
2022-12-16T06:07:56.827Z,2.40
2022-12-16T06:09:17.320Z,2.30
2022-12-16T06:10:37.872Z,2.20
2022-12-16T06:11:59.369Z,2.30
2022-12-16T06:13:19.783Z,2.30
2022-12-16T06:14:40.436Z,2.30
2022-12-16T06:16:06.764Z,2.20
2022-12-16T06:17:28.824Z,2.20
2022-12-16T06:18:49.390Z,2.30
2022-12-16T06:20:09.800Z,2.30
2022-12-16T06:21:30.399Z,2.30
2022-12-16T06:22:50.980Z,2.30
2022-12-16T06:24:11.548Z,2.30
2022-12-16T06:25:32.091Z,2.10
2022-12-16T06:26:52.668Z,2.20
2022-12-16T06:28:14.278Z,2.20
2022-12-16T06:29:34.847Z,2.30
2022-12-16T06:30:55.385Z,2.20
2022-12-16T06:32:16.120Z,2.20
2022-12-16T06:33:36.566Z,2.20
2022-12-16T06:34:57.088Z,2.20
2022-12-16T06:36:17.614Z,2.20
2022-12-16T06:37:38.255Z,2.30
2022-12-16T06:38:58.750Z,2.30
2022-12-16T06:40:18.973Z,2.20
2022-12-16T06:41:39.319Z,2.30
2022-12-16T06:42:59.797Z,2.30
2022-12-16T06:44:20.592Z,2.30
2022-12-16T06:45:40.967Z,2.40
2022-12-16T06:47:01.227Z,2.30
2022-12-16T06:48:21.887Z,2.30
2022-12-16T06:49:42.372Z,2.30
2022-12-16T06:51:02.655Z,2.30
2022-12-16T06:52:23.087Z,2.20
2022-12-16T06:53:43.837Z,2.20
2022-12-16T06:56:48.222Z,2.20
2022-12-16T06:58:15.028Z,2.30
2022-12-16T06:59:36.757Z,2.30
2022-12-16T07:00:57.237Z,2.20
2022-12-16T07:02:18.154Z,2.20
2022-12-16T07:03:38.383Z,2.20
2022-12-16T07:04:59.010Z,2.10
2022-12-16T07:06:19.600Z,2.10
2022-12-16T07:07:40.210Z,2.20
2022-12-16T07:09:00.570Z,2.20
2022-12-16T07:10:24.821Z,2.30
2022-12-16T07:11:45.365Z,2.10
2022-12-16T07:13:05.902Z,2.20
2022-12-16T07:14:26.483Z,2.30
2022-12-16T07:15:48.025Z,2.20
2022-12-16T07:17:12.337Z,2.30
2022-12-16T07:18:32.081Z,2.20
2022-12-16T07:19:52.609Z,2.20
2022-12-16T07:21:13.079Z,2.10
2022-12-16T07:22:33.600Z,2.10
2022-12-16T07:23:50.463Z,2.10
2022-12-16T07:25:11.122Z,2.10
2022-12-16T07:26:31.610Z,2.10
2022-12-16T07:29:42.761Z,2.10
2022-12-16T07:31:04.485Z,2.10
2022-12-16T07:32:25.023Z,2.20
2022-12-16T07:33:45.532Z,2.20
2022-12-16T07:35:05.985Z,2.20
2022-12-16T07:36:26.979Z,2.30
2022-12-16T07:37:47.323Z,2.20
2022-12-16T07:39:08.009Z,2.20
2022-12-16T07:40:29.713Z,2.20
2022-12-16T07:41:50.317Z,2.20
2022-12-16T07:43:09.752Z,2.30
2022-12-16T07:44:30.225Z,2.30
2022-12-16T07:45:51.281Z,2.20
2022-12-16T07:47:14.039Z,2.10
2022-12-16T07:48:34.495Z,2.20
2022-12-16T07:50:06.529Z,2.30
2022-12-16T07:51:27.048Z,2.20
2022-12-16T07:52:47.401Z,2.30
2022-12-16T07:54:19.357Z,2.40
2022-12-16T07:55:36.157Z,2.40
2022-12-16T07:56:56.534Z,2.20
2022-12-16T07:58:17.180Z,2.20
2022-12-16T07:59:38.019Z,2.20
2022-12-16T08:00:58.378Z,2.30
2022-12-16T08:02:20.355Z,2.10
2022-12-16T08:03:37.790Z,2.20
2022-12-16T08:04:58.534Z,2.20
2022-12-16T08:06:19.038Z,2.40
2022-12-16T08:07:39.408Z,2.30
2022-12-16T08:08:59.980Z,2.30
2022-12-16T08:10:20.558Z,2.40
2022-12-16T08:11:41.041Z,2.30
2022-12-16T08:13:01.399Z,2.20
2022-12-16T08:14:21.957Z,2.20
2022-12-16T08:15:42.511Z,2.20
2022-12-16T08:17:05.134Z,2.20
2022-12-16T08:18:27.196Z,2.20
2022-12-16T08:19:47.648Z,2.20
2022-12-16T08:21:08.060Z,2.20
2022-12-16T08:22:28.840Z,2.10
2022-12-16T08:23:49.357Z,2.20
2022-12-16T08:25:09.817Z,2.30
2022-12-16T08:26:30.687Z,2.30
2022-12-16T08:27:51.209Z,2.40
2022-12-16T08:29:41.997Z,2.40
2022-12-16T08:30:51.953Z,2.40
2022-12-16T08:32:12.875Z,2.40
2022-12-16T08:33:34.779Z,2.40
2022-12-16T08:34:55.517Z,2.30
2022-12-16T08:36:16.816Z,2.30
2022-12-16T08:37:37.355Z,2.40
2022-12-16T08:39:06.264Z,2.40
2022-12-16T08:40:35.433Z,2.40
2022-12-16T08:41:56.357Z,2.40
2022-12-16T08:43:16.809Z,2.40
2022-12-16T08:44:37.385Z,2.40
2022-12-16T08:45:57.892Z,2.30
2022-12-16T08:47:18.452Z,2.30
2022-12-16T08:48:40.104Z,2.30
2022-12-16T08:50:02.304Z,2.40
2022-12-16T08:51:24.845Z,2.30
2022-12-16T08:52:45.717Z,2.30
2022-12-16T08:54:06.233Z,2.30
2022-12-16T08:55:29.728Z,2.40
2022-12-16T08:56:50.527Z,2.40
2022-12-16T08:58:14.189Z,2.40
2022-12-16T08:59:34.561Z,2.40
2022-12-16T09:00:55.037Z,2.40
2022-12-16T09:02:15.980Z,2.40
2022-12-16T09:03:36.644Z,2.40
2022-12-16T09:04:59.121Z,2.50
2022-12-16T09:06:19.631Z,2.50
2022-12-16T09:07:40.201Z,2.50
2022-12-16T09:09:00.672Z,2.50
2022-12-16T09:10:21.171Z,2.40
2022-12-16T09:11:41.672Z,2.50
2022-12-16T09:13:02.337Z,2.40
2022-12-16T09:14:23.201Z,2.40
2022-12-16T09:15:43.900Z,2.50
2022-12-16T09:17:04.122Z,2.40
2022-12-16T09:18:24.588Z,2.40
2022-12-16T09:19:44.958Z,2.50
2022-12-16T09:21:06.625Z,2.50
2022-12-16T09:22:27.141Z,2.50
2022-12-16T09:23:47.604Z,2.50
2022-12-16T09:25:08.098Z,2.50
2022-12-16T09:26:43.585Z,2.40
2022-12-16T09:28:07.617Z,2.50
2022-12-16T09:29:29.488Z,2.50
2022-12-16T09:30:49.882Z,2.60
2022-12-16T09:32:11.745Z,2.60
2022-12-16T09:33:32.607Z,2.60
2022-12-16T09:35:01.652Z,2.60
2022-12-16T09:36:24.012Z,2.70
2022-12-16T09:37:44.406Z,2.60
2022-12-16T09:39:05.048Z,2.80
2022-12-16T09:40:27.919Z,2.70
2022-12-16T09:41:59.528Z,2.70
2022-12-16T09:43:27.019Z,2.70
2022-12-16T09:44:56.795Z,2.70
2022-12-16T09:46:36.100Z,2.80
2022-12-16T09:48:03.668Z,2.80
2022-12-16T09:49:36.101Z,2.70
2022-12-16T09:51:01.422Z,2.80
2022-12-16T09:52:27.463Z,2.70
2022-12-16T09:53:53.385Z,2.70
2022-12-16T09:55:13.908Z,2.70
2022-12-16T09:56:36.846Z,2.70
2022-12-16T09:58:02.580Z,2.80
2022-12-16T09:59:29.530Z,2.90
2022-12-16T10:00:50.836Z,2.80
2022-12-16T10:03:58.266Z,2.70
2022-12-16T10:05:19.579Z,2.70
2022-12-16T10:06:51.094Z,2.70
2022-12-16T10:08:21.827Z,2.80
2022-12-16T10:09:48.215Z,2.80
2022-12-16T10:11:18.747Z,2.80
2022-12-16T10:12:48.453Z,2.80
2022-12-16T10:14:19.295Z,2.90
2022-12-16T10:15:50.070Z,2.80
2022-12-16T10:17:19.344Z,2.90
2022-12-16T10:18:51.405Z,2.90
2022-12-16T10:20:18.749Z,2.90
2022-12-16T10:21:45.729Z,2.90
2022-12-16T10:23:11.577Z,2.90
2022-12-16T10:24:44.841Z,2.90
2022-12-16T10:26:09.905Z,3.00
2022-12-16T10:27:33.218Z,2.90
2022-12-16T10:29:03.709Z,2.90
2022-12-16T10:30:31.070Z,3.00
2022-12-16T10:31:52.723Z,3.00
2022-12-16T10:33:13.720Z,1.40
2022-12-16T10:34:45.673Z,2.00
2022-12-16T10:36:10.260Z,2.30
2022-12-16T10:37:34.740Z,2.50
2022-12-16T10:38:59.232Z,2.60
2022-12-16T10:40:23.133Z,2.60
2022-12-16T10:41:48.122Z,2.70
2022-12-16T10:43:16.592Z,2.70
2022-12-16T10:44:43.117Z,2.80
2022-12-16T10:46:07.531Z,2.90
2022-12-16T10:47:30.002Z,2.80
2022-12-16T10:48:57.090Z,2.90
2022-12-16T10:50:18.005Z,2.80
2022-12-16T10:51:40.577Z,2.80
2022-12-16T10:53:10.213Z,2.80
2022-12-16T10:54:50.767Z,2.80
2022-12-16T10:56:30.167Z,2.80
2022-12-16T10:58:16.241Z,2.80
2022-12-16T10:59:37.112Z,2.80
2022-12-16T11:01:00.046Z,2.90
2022-12-16T11:02:23.290Z,2.90
2022-12-16T11:03:45.695Z,2.90
2022-12-16T11:05:07.621Z,2.90
2022-12-16T11:06:29.559Z,2.90
2022-12-16T11:07:53.290Z,3.00
2022-12-16T11:09:13.602Z,3.00
2022-12-16T11:10:46.926Z,2.90
2022-12-16T11:12:22.980Z,2.90
2022-12-16T11:13:46.406Z,3.00
2022-12-16T11:15:28.713Z,3.10
2022-12-16T11:16:49.775Z,3.00
2022-12-16T11:18:21.841Z,2.80
2022-12-16T11:19:45.905Z,2.60
2022-12-16T11:21:24.004Z,2.70
2022-12-16T11:22:46.795Z,2.80
2022-12-16T11:24:22.952Z,2.90
2022-12-16T11:25:43.389Z,2.90
2022-12-16T11:27:13.031Z,3.00
2022-12-16T11:28:36.508Z,3.10
2022-12-16T11:30:09.093Z,3.00
2022-12-16T11:31:34.592Z,3.00
2022-12-16T11:32:57.041Z,3.00
2022-12-16T11:34:20.407Z,3.00
2022-12-16T11:35:44.988Z,3.10
2022-12-16T11:37:10.344Z,3.00
2022-12-16T11:38:42.312Z,3.00
2022-12-16T11:40:02.907Z,2.90
2022-12-16T11:41:24.864Z,3.00
2022-12-16T11:42:50.407Z,2.90
2022-12-16T11:44:12.432Z,2.90
2022-12-16T11:45:35.385Z,2.90
2022-12-16T11:46:56.128Z,2.90
2022-12-16T11:48:22.462Z,3.00
2022-12-16T11:49:48.126Z,3.00
2022-12-16T11:51:12.047Z,3.00
2022-12-16T11:52:37.530Z,3.00
2022-12-16T11:54:03.031Z,3.10
2022-12-16T11:56:03.355Z,3.00
2022-12-16T11:57:15.994Z,3.20
2022-12-16T11:58:44.621Z,3.10
2022-12-16T12:00:11.604Z,3.00
2022-12-16T12:01:44.731Z,3.00
2022-12-16T12:03:11.333Z,2.90
2022-12-16T12:04:44.691Z,2.90
2022-12-16T12:06:14.864Z,2.90
2022-12-16T12:07:58.233Z,2.90
2022-12-16T12:09:24.848Z,2.90
2022-12-16T12:11:08.880Z,2.90
2022-12-16T12:12:38.278Z,2.90
2022-12-16T12:14:10.470Z,3.00
2022-12-16T12:15:40.465Z,2.90
2022-12-16T12:17:14.409Z,2.90
2022-12-16T12:18:42.686Z,2.90
2022-12-16T12:20:17.724Z,2.90
2022-12-16T12:21:43.303Z,2.90
2022-12-16T12:23:01.398Z,2.90
2022-12-16T12:24:31.432Z,2.90
2022-12-16T12:26:02.486Z,3.00
2022-12-16T12:27:32.902Z,3.00
2022-12-16T12:29:06.696Z,3.00
2022-12-16T12:30:33.260Z,3.10
2022-12-16T12:32:03.720Z,3.20
2022-12-16T12:33:43.172Z,3.10
2022-12-16T12:35:12.345Z,3.00
2022-12-16T12:36:39.155Z,3.10
2022-12-16T12:38:04.251Z,3.10
2022-12-16T12:39:36.858Z,3.20
2022-12-16T12:41:09.128Z,3.20
2022-12-16T12:42:48.755Z,3.10
2022-12-16T12:44:20.709Z,3.10
2022-12-16T12:46:06.434Z,3.00
2022-12-16T12:47:30.359Z,3.00
2022-12-16T12:49:00.508Z,3.00
2022-12-16T12:50:27.359Z,3.00
2022-12-16T12:51:55.456Z,3.00
2022-12-16T12:53:33.693Z,3.00
2022-12-16T12:55:03.283Z,3.10
2022-12-16T12:56:30.159Z,3.10
2022-12-16T12:57:53.921Z,3.00
2022-12-16T12:59:33.509Z,3.00
2022-12-16T13:01:02.016Z,3.00
2022-12-16T13:02:24.664Z,3.00
2022-12-16T13:03:56.791Z,3.10
2022-12-16T13:05:24.026Z,3.20
2022-12-16T13:06:47.797Z,3.10
2022-12-16T13:08:08.368Z,3.10
2022-12-16T13:09:50.207Z,3.00
2022-12-16T13:11:35.004Z,3.10
2022-12-16T13:12:56.138Z,3.10
2022-12-16T13:14:16.652Z,3.10
2022-12-16T13:15:39.443Z,3.10
2022-12-16T13:17:36.516Z,3.00
2022-12-16T13:18:56.797Z,3.00
2022-12-16T13:20:17.509Z,3.00
2022-12-16T13:22:02.238Z,2.90
2022-12-16T13:23:47.696Z,2.90
2022-12-16T13:25:09.043Z,3.00
2022-12-16T13:26:29.661Z,3.00
2022-12-16T13:28:06.213Z,3.00
2022-12-16T13:29:37.873Z,3.10
2022-12-16T13:30:58.666Z,3.20
2022-12-16T13:32:33.132Z,3.20
2022-12-16T13:33:54.925Z,3.10
2022-12-16T13:35:19.812Z,3.10
2022-12-16T13:36:52.583Z,3.20
2022-12-16T13:38:15.344Z,3.20
2022-12-16T13:39:44.443Z,3.10
2022-12-16T13:41:11.519Z,3.20
2022-12-16T13:42:50.255Z,3.20
2022-12-16T13:44:12.333Z,3.20
2022-12-16T13:45:48.040Z,3.20
2022-12-16T13:47:10.621Z,3.20
2022-12-16T13:49:05.160Z,3.20
2022-12-16T13:50:54.460Z,3.20
2022-12-16T13:52:20.296Z,2.80
2022-12-16T13:53:43.667Z,2.80
2022-12-16T13:55:10.721Z,2.70
2022-12-16T13:56:46.001Z,2.70
2022-12-16T13:58:12.162Z,2.60
2022-12-16T13:59:37.104Z,2.60
2022-12-16T14:00:59.842Z,2.60
2022-12-16T14:02:32.327Z,2.60
2022-12-16T14:04:00.815Z,2.50
2022-12-16T14:05:23.320Z,2.50
2022-12-16T14:06:46.477Z,2.60
2022-12-16T14:08:07.942Z,2.60
2022-12-16T14:09:49.292Z,2.60
2022-12-16T14:11:19.155Z,2.60
2022-12-16T14:12:58.062Z,2.60
2022-12-16T14:14:38.056Z,2.60
2022-12-16T14:16:15.022Z,2.50
2022-12-16T14:17:42.656Z,2.50
2022-12-16T14:19:17.722Z,2.50
2022-12-16T14:20:47.077Z,2.50
2022-12-16T14:22:10.120Z,2.50
2022-12-16T14:23:59.573Z,2.40
2022-12-16T14:25:28.006Z,2.50
2022-12-16T14:26:48.584Z,2.40
2022-12-16T14:28:09.105Z,2.40
2022-12-16T14:29:38.636Z,2.40
2022-12-16T14:31:00.027Z,2.40
2022-12-16T14:32:20.755Z,2.40
2022-12-16T14:33:43.414Z,2.40
2022-12-16T14:35:03.945Z,2.30
2022-12-16T14:36:38.223Z,2.30
2022-12-16T14:37:58.663Z,2.40
2022-12-16T14:39:19.090Z,2.30
2022-12-16T14:40:41.658Z,2.30
2022-12-16T14:42:08.710Z,2.30
2022-12-16T14:43:31.949Z,2.20
2022-12-16T14:44:52.810Z,2.20
2022-12-16T14:46:13.293Z,2.20
2022-12-16T14:47:42.083Z,2.20
2022-12-16T14:49:05.954Z,2.20
2022-12-16T14:50:38.568Z,2.30
2022-12-16T14:52:05.990Z,2.20
2022-12-16T14:53:35.432Z,2.30
2022-12-16T14:54:58.129Z,2.30
2022-12-16T14:56:33.672Z,2.40
2022-12-16T14:57:54.222Z,2.40
2022-12-16T14:59:26.787Z,1.20
2022-12-16T15:00:58.921Z,0.50
2022-12-16T15:02:32.817Z,0.40
2022-12-16T15:03:58.849Z,1.40
2022-12-16T15:05:19.717Z,1.80
2022-12-16T15:06:43.671Z,2.10
2022-12-16T15:08:05.216Z,2.40
2022-12-16T15:09:31.324Z,2.50
2022-12-16T15:10:52.291Z,2.70
2022-12-16T15:12:15.328Z,2.80
2022-12-16T15:13:37.732Z,2.80
2022-12-16T15:15:00.995Z,2.70
2022-12-16T15:16:34.109Z,2.70
2022-12-16T15:18:02.777Z,2.80
2022-12-16T15:19:23.994Z,2.80
2022-12-16T15:20:47.037Z,2.90
2022-12-16T15:22:07.510Z,2.90
2022-12-16T15:23:37.598Z,2.90
2022-12-16T15:24:58.155Z,3.00
2022-12-16T15:26:18.792Z,2.90
2022-12-16T15:27:43.815Z,3.00
2022-12-16T15:29:04.303Z,3.00
2022-12-16T15:30:55.181Z,3.00
2022-12-16T15:32:15.747Z,2.90
2022-12-16T15:33:37.765Z,3.00
2022-12-16T15:35:05.914Z,2.40
2022-12-16T15:36:46.181Z,3.00
2022-12-16T15:38:06.587Z,2.90
2022-12-16T15:39:48.444Z,3.00
2022-12-16T15:41:10.131Z,3.00
2022-12-16T15:42:40.128Z,3.00
2022-12-16T15:44:03.653Z,3.00
2022-12-16T15:45:39.355Z,3.00
2022-12-16T15:47:06.975Z,3.10
2022-12-16T15:48:31.989Z,3.10
2022-12-16T15:49:59.189Z,3.10
2022-12-16T15:51:23.145Z,3.00
2022-12-16T15:52:55.242Z,3.00
2022-12-16T15:54:20.671Z,3.00
2022-12-16T15:55:45.727Z,3.00
2022-12-16T15:57:06.126Z,3.00
2022-12-16T15:58:32.022Z,3.00
2022-12-16T15:59:54.966Z,2.90
2022-12-16T16:01:16.630Z,3.00
2022-12-16T16:02:39.539Z,3.10
2022-12-16T16:04:07.676Z,3.00
2022-12-16T16:05:31.081Z,2.90
2022-12-16T16:06:51.684Z,2.90
2022-12-16T16:08:12.120Z,2.90
2022-12-16T16:09:34.259Z,3.00
2022-12-16T16:10:55.850Z,3.00
2022-12-16T16:12:15.644Z,3.10
2022-12-16T16:13:50.482Z,3.10
2022-12-16T16:15:10.979Z,3.00
2022-12-16T16:16:31.782Z,3.00
2022-12-16T16:17:52.622Z,3.00
2022-12-16T16:19:13.074Z,2.90
2022-12-16T16:20:35.468Z,3.00
2022-12-16T16:21:56.989Z,2.90
2022-12-16T16:23:17.541Z,2.80
2022-12-16T16:24:38.007Z,2.90
2022-12-16T16:26:03.794Z,2.90
2022-12-16T16:27:29.846Z,2.90
2022-12-16T16:28:50.372Z,3.00
2022-12-16T16:30:10.873Z,3.00
2022-12-16T16:31:31.246Z,3.00
2022-12-16T16:32:51.937Z,3.20
2022-12-16T16:34:12.501Z,3.20
2022-12-16T16:35:32.868Z,3.20
2022-12-16T16:36:53.364Z,3.20
2022-12-16T16:38:18.058Z,3.20
2022-12-16T16:39:38.984Z,3.20
2022-12-16T16:41:02.309Z,3.10
2022-12-16T16:42:22.755Z,3.00
2022-12-16T16:43:44.043Z,3.00
2022-12-16T16:45:04.563Z,3.10
2022-12-16T16:46:41.918Z,3.20
2022-12-16T16:48:02.292Z,3.30
2022-12-16T16:49:22.772Z,3.30
2022-12-16T16:50:43.148Z,3.30
2022-12-16T16:52:03.562Z,3.30
2022-12-16T16:53:23.994Z,3.20
2022-12-16T16:54:44.572Z,3.30
2022-12-16T16:56:15.179Z,3.30
2022-12-16T16:57:40.615Z,3.30
2022-12-16T16:59:00.959Z,3.30
2022-12-16T17:00:22.321Z,3.30
2022-12-16T17:03:06.471Z,3.40
2022-12-16T17:04:27.086Z,3.40
2022-12-16T17:05:59.304Z,3.30
2022-12-16T17:07:19.630Z,3.40
2022-12-16T17:08:39.929Z,3.30
2022-12-16T17:10:00.319Z,3.40
2022-12-16T17:11:21.968Z,3.40
2022-12-16T17:12:44.513Z,3.30
2022-12-16T17:14:05.013Z,3.30
2022-12-16T17:15:33.724Z,3.40
2022-12-16T17:16:53.978Z,3.40
2022-12-16T17:18:14.504Z,3.40
2022-12-16T17:19:35.013Z,3.30
2022-12-16T17:20:55.524Z,3.30
2022-12-16T17:22:15.927Z,3.30
2022-12-16T17:23:36.808Z,3.20
2022-12-16T17:24:57.573Z,3.30
2022-12-16T17:26:18.102Z,3.20
2022-12-16T17:27:41.994Z,3.20
2022-12-16T17:29:02.553Z,3.20
2022-12-16T17:30:29.486Z,3.20
2022-12-16T17:31:50.169Z,3.30
2022-12-16T17:33:10.546Z,3.20
2022-12-16T17:34:31.009Z,3.30
2022-12-16T17:36:03.063Z,3.20
2022-12-16T17:37:23.525Z,3.10
2022-12-16T17:38:55.660Z,3.20
2022-12-16T17:40:15.913Z,3.20
2022-12-16T17:41:36.193Z,3.20
2022-12-16T17:42:57.811Z,3.30